createdAt,value
2023-04-22T00:00:48.037Z,48.80
2023-04-22T00:03:15.073Z,48.80
2023-04-22T00:05:42.588Z,48.80
2023-04-22T00:08:09.358Z,48.90
2023-04-22T00:10:36.141Z,49.00
2023-04-22T00:13:03.261Z,49.00
2023-04-22T00:17:59.334Z,48.60
2023-04-22T00:20:26.087Z,49.10
2023-04-22T00:22:52.910Z,49.10
2023-04-22T00:25:19.773Z,49.10
2023-04-22T00:27:46.506Z,49.10
2023-04-22T00:30:13.529Z,49.20
2023-04-22T00:32:40.379Z,49.10
2023-04-22T00:35:07.774Z,49.20
2023-04-22T00:37:34.898Z,49.20
2023-04-22T00:40:01.788Z,49.20
2023-04-22T00:42:29.467Z,49.30
2023-04-22T00:44:56.973Z,49.30
2023-04-22T00:47:26.951Z,49.30
2023-04-22T00:49:55.004Z,49.30
2023-04-22T00:52:22.415Z,49.40
2023-04-22T00:54:49.709Z,49.30
2023-04-22T00:57:18.296Z,49.40
2023-04-22T00:59:45.825Z,49.40
2023-04-22T01:02:14.228Z,49.40
2023-04-22T01:04:41.151Z,49.70
2023-04-22T01:07:08.070Z,49.40
2023-04-22T01:09:35.509Z,49.40
2023-04-22T01:12:02.599Z,49.50
2023-04-22T01:14:29.542Z,49.50
2023-04-22T01:16:56.649Z,49.60
2023-04-22T01:19:24.123Z,49.10
2023-04-22T01:21:55.682Z,49.70
2023-04-22T01:24:22.620Z,49.70
2023-04-22T01:26:49.767Z,49.70
2023-04-22T01:29:16.581Z,49.70
2023-04-22T01:31:43.536Z,49.70
2023-04-22T01:34:11.929Z,49.80
2023-04-22T01:36:38.900Z,49.70
2023-04-22T01:39:05.764Z,49.70
2023-04-22T01:41:32.713Z,49.80
2023-04-22T01:44:03.054Z,50.30
2023-04-22T01:48:57.207Z,49.40
2023-04-22T01:51:24.384Z,50.00
2023-04-22T01:56:18.844Z,49.50
2023-04-22T01:58:45.605Z,50.10
2023-04-22T02:01:14.614Z,50.00
2023-04-22T02:03:41.747Z,50.40
2023-04-22T02:06:08.789Z,50.10
2023-04-22T02:08:35.575Z,50.10
2023-04-22T02:11:02.450Z,50.20
2023-04-22T02:13:41.338Z,50.20
2023-04-22T02:16:08.592Z,50.30
2023-04-22T02:18:35.480Z,50.20
2023-04-22T02:21:03.015Z,49.80
2023-04-22T02:23:30.221Z,50.30
2023-04-22T02:25:57.098Z,50.20
2023-04-22T02:28:23.909Z,50.30
2023-04-22T02:30:50.690Z,50.90
2023-04-22T02:33:17.614Z,50.30
2023-04-22T02:35:44.415Z,50.40
2023-04-22T02:38:11.433Z,50.40
2023-04-22T02:40:38.180Z,50.40
2023-04-22T02:43:05.014Z,50.50
2023-04-22T02:45:31.763Z,50.50
2023-04-22T02:47:58.656Z,50.50
2023-04-22T02:50:25.547Z,50.50
2023-04-22T02:52:52.342Z,50.50
2023-04-22T02:55:19.190Z,50.60
2023-04-22T02:57:46.112Z,50.60
2023-04-22T03:00:13.410Z,50.60
2023-04-22T03:02:40.333Z,50.60
2023-04-22T03:05:07.707Z,50.20
2023-04-22T03:07:34.459Z,50.60
2023-04-22T03:10:01.171Z,50.60
2023-04-22T03:12:27.898Z,50.60
2023-04-22T03:14:54.669Z,50.70
2023-04-22T03:17:21.455Z,50.70
2023-04-22T03:19:48.223Z,50.60
2023-04-22T03:22:14.985Z,50.70
2023-04-22T03:24:41.830Z,50.80
2023-04-22T03:27:10.753Z,50.80
2023-04-22T03:29:37.721Z,50.80
2023-04-22T03:32:05.021Z,51.00
2023-04-22T03:34:31.807Z,51.00
2023-04-22T03:36:58.541Z,51.00
2023-04-22T03:39:25.365Z,50.50
2023-04-22T03:41:52.118Z,51.00
2023-04-22T03:44:18.869Z,51.10
2023-04-22T03:46:45.642Z,51.10
2023-04-22T03:49:12.837Z,51.10
2023-04-22T03:51:39.695Z,51.10
2023-04-22T03:54:06.899Z,51.20
2023-04-22T03:56:33.818Z,51.20
2023-04-22T03:59:00.554Z,51.30
2023-04-22T04:01:27.582Z,51.30
2023-04-22T04:03:54.625Z,51.40
2023-04-22T04:06:21.810Z,51.40
2023-04-22T04:08:48.590Z,51.40
2023-04-22T04:11:15.420Z,51.50
2023-04-22T04:13:42.164Z,51.50
2023-04-22T04:16:09.015Z,51.50
2023-04-22T04:18:36.605Z,51.70
2023-04-22T04:21:04.147Z,51.80
2023-04-22T04:23:30.907Z,51.90
2023-04-22T04:25:57.895Z,51.80
2023-04-22T04:28:25.506Z,51.40
2023-04-22T04:30:53.789Z,51.90
2023-04-22T04:33:20.615Z,52.00
2023-04-22T04:35:48.041Z,52.10
2023-04-22T04:38:14.817Z,52.20
2023-04-22T04:40:43.605Z,52.20
2023-04-22T04:43:10.365Z,52.20
2023-04-22T04:45:37.759Z,52.30
2023-04-22T04:48:07.297Z,52.30
2023-04-22T04:50:34.129Z,52.50
2023-04-22T04:53:01.557Z,52.40
2023-04-22T04:55:28.322Z,52.00
2023-04-22T04:57:55.116Z,52.40
2023-04-22T05:00:21.852Z,52.50
2023-04-22T05:02:48.851Z,52.50
2023-04-22T05:05:15.707Z,52.50
2023-04-22T05:07:42.590Z,52.50
2023-04-22T05:10:10.798Z,52.10
2023-04-22T05:15:05.866Z,52.00
2023-04-22T05:17:32.825Z,52.60
2023-04-22T05:19:59.590Z,52.30
2023-04-22T05:22:26.363Z,52.60
2023-04-22T05:24:53.098Z,52.70
2023-04-22T05:27:19.909Z,52.20
2023-04-22T05:29:46.701Z,52.70
2023-04-22T05:34:40.999Z,52.30
2023-04-22T05:37:08.302Z,52.80
2023-04-22T05:39:35.187Z,52.80
2023-04-22T05:42:02.574Z,52.80
2023-04-22T05:44:29.305Z,52.70
2023-04-22T05:46:56.085Z,52.70
2023-04-22T05:49:22.841Z,52.10
2023-04-22T05:51:50.748Z,52.50
2023-04-22T05:54:17.529Z,52.50
2023-04-22T05:56:44.649Z,52.40
2023-04-22T05:59:11.446Z,52.40
2023-04-22T06:01:38.221Z,52.30
2023-04-22T06:04:06.284Z,52.30
2023-04-22T06:06:33.359Z,52.20
2023-04-22T06:09:00.106Z,52.20
2023-04-22T06:11:27.015Z,52.10
2023-04-22T06:13:53.881Z,52.60
2023-04-22T06:16:22.101Z,52.00
2023-04-22T06:18:48.910Z,51.90
2023-04-22T06:21:15.844Z,51.10
2023-04-22T06:23:43.139Z,51.70
2023-04-22T06:26:09.929Z,51.60
2023-04-22T06:28:36.654Z,51.60
2023-04-22T06:31:03.484Z,51.50
2023-04-22T06:33:30.300Z,51.50
2023-04-22T06:35:57.200Z,51.50
2023-04-22T06:38:24.061Z,51.40
2023-04-22T06:40:50.816Z,51.40
2023-04-22T06:43:17.669Z,51.30
2023-04-22T06:46:09.481Z,51.30
2023-04-22T06:48:40.995Z,51.80
2023-04-22T06:51:07.773Z,51.10
2023-04-22T06:53:34.508Z,51.00
2023-04-22T06:56:01.266Z,51.00
2023-04-22T06:58:28.001Z,50.90
2023-04-22T07:00:54.716Z,50.80
2023-04-22T07:03:21.551Z,50.70
2023-04-22T07:05:48.757Z,50.50
2023-04-22T07:08:15.755Z,50.70
2023-04-22T07:10:42.525Z,50.40
2023-04-22T07:13:09.300Z,50.30
2023-04-22T07:15:36.060Z,50.30
2023-04-22T07:18:02.791Z,50.20
2023-04-22T07:20:29.618Z,50.20
2023-04-22T07:22:56.342Z,50.00
2023-04-22T07:25:23.510Z,49.20
2023-04-22T07:27:50.445Z,49.90
2023-04-22T07:30:17.169Z,49.20
2023-04-22T07:32:43.909Z,49.80
2023-04-22T07:35:10.685Z,49.50
2023-04-22T07:37:37.467Z,49.60
2023-04-22T07:40:05.908Z,49.40
2023-04-22T07:42:32.841Z,49.40
2023-04-22T07:44:59.707Z,49.30
2023-04-22T07:47:26.511Z,49.30
2023-04-22T07:49:53.493Z,49.20
2023-04-22T07:52:20.978Z,49.20
2023-04-22T07:54:47.728Z,49.20
2023-04-22T07:57:14.511Z,49.00
2023-04-22T07:59:41.507Z,48.80
2023-04-22T08:02:08.536Z,48.90
2023-04-22T08:04:35.551Z,48.80
2023-04-22T08:07:17.102Z,48.70
2023-04-22T08:09:50.522Z,48.50
2023-04-22T08:12:17.307Z,48.50
2023-04-22T08:14:44.215Z,48.40
2023-04-22T08:17:11.030Z,48.30
2023-04-22T08:19:37.949Z,48.10
2023-04-22T08:24:32.322Z,47.50
2023-04-22T08:26:59.195Z,47.70
2023-04-22T08:29:25.964Z,47.70
2023-04-22T08:31:52.769Z,47.60
2023-04-22T08:34:19.571Z,47.40
2023-04-22T08:36:46.354Z,47.50
2023-04-22T08:39:13.224Z,47.50
2023-04-22T08:41:41.505Z,47.30
2023-04-22T08:44:08.554Z,47.40
2023-04-22T08:46:35.708Z,46.70
2023-04-22T08:49:04.004Z,47.10
2023-04-22T08:51:33.861Z,46.70
2023-04-22T08:54:01.811Z,47.00
2023-04-22T08:56:30.334Z,46.80
2023-04-22T08:58:57.908Z,46.70
2023-04-22T09:01:26.635Z,46.70
2023-04-22T09:03:56.150Z,46.50
2023-04-22T09:06:23.683Z,46.50
2023-04-22T09:08:50.781Z,46.20
2023-04-22T09:11:18.094Z,46.20
2023-04-22T09:13:44.940Z,45.90
2023-04-22T09:16:11.760Z,45.90
2023-04-22T09:18:47.882Z,44.50
2023-04-22T09:23:55.225Z,45.70
2023-04-22T09:26:24.437Z,45.00
2023-04-22T09:28:56.629Z,45.40
2023-04-22T09:31:24.270Z,45.30
2023-04-22T09:33:55.779Z,45.10
2023-04-22T09:36:30.165Z,45.00
2023-04-22T09:39:02.114Z,44.80
2023-04-22T09:41:38.631Z,45.10
2023-04-22T09:44:13.834Z,45.00
2023-04-22T09:46:43.892Z,44.90
2023-04-22T09:49:11.397Z,44.90
2023-04-22T09:51:44.615Z,45.00
2023-04-22T09:54:12.136Z,44.70
2023-04-22T09:56:51.939Z,44.80
2023-04-22T09:59:23.039Z,44.30
2023-04-22T10:01:53.394Z,44.60
2023-04-22T10:04:25.376Z,44.60
2023-04-22T10:06:54.113Z,44.30
2023-04-22T10:09:24.169Z,44.00
2023-04-22T10:11:54.578Z,43.90
2023-04-22T10:14:25.922Z,43.60
2023-04-22T10:16:58.992Z,43.60
2023-04-22T10:19:27.461Z,42.70
2023-04-22T10:21:58.572Z,43.50
2023-04-22T10:24:35.499Z,43.60
2023-04-22T10:27:06.668Z,43.10
2023-04-22T10:29:40.153Z,43.50
2023-04-22T10:32:27.845Z,42.30
2023-04-22T10:35:10.850Z,41.80
2023-04-22T10:37:41.516Z,42.70
2023-04-22T10:40:17.736Z,43.20
2023-04-22T10:42:53.068Z,42.50
2023-04-22T10:45:25.492Z,42.30
2023-04-22T10:47:52.343Z,42.10
2023-04-22T10:50:26.891Z,41.80
2023-04-22T10:52:59.435Z,40.50
2023-04-22T10:55:53.038Z,41.80
2023-04-22T10:58:22.634Z,41.80
2023-04-22T11:00:58.077Z,41.10
2023-04-22T11:03:31.065Z,41.70
2023-04-22T11:06:22.333Z,41.50
2023-04-22T11:08:52.729Z,41.10
2023-04-22T11:11:20.216Z,41.50
2023-04-22T11:13:50.957Z,41.00
2023-04-22T11:18:49.835Z,40.90
2023-04-22T11:21:17.044Z,41.10
2023-04-22T11:23:54.634Z,41.00
2023-04-22T11:26:35.124Z,40.50
2023-04-22T11:29:01.927Z,39.90
2023-04-22T11:31:28.685Z,40.60
2023-04-22T11:33:59.770Z,40.70
2023-04-22T11:36:27.632Z,40.30
2023-04-22T11:38:56.414Z,40.60
2023-04-22T11:41:23.744Z,40.40
2023-04-22T11:43:50.529Z,40.20
2023-04-22T11:46:28.112Z,40.20
2023-04-22T11:48:54.903Z,40.10
2023-04-22T11:51:21.676Z,40.20
2023-04-22T11:53:51.719Z,39.70
2023-04-22T11:56:18.464Z,39.50
2023-04-22T11:58:45.200Z,39.60
2023-04-22T12:01:14.020Z,39.40
2023-04-22T12:03:40.951Z,39.50
2023-04-22T12:06:07.813Z,39.60
2023-04-22T12:08:42.389Z,39.60
2023-04-22T12:11:11.662Z,39.10
2023-04-22T12:13:38.293Z,39.20
2023-04-22T12:16:14.691Z,39.00
2023-04-22T12:18:54.645Z,39.10
2023-04-22T12:21:25.186Z,38.90
2023-04-22T12:23:59.070Z,39.20
2023-04-22T12:26:27.721Z,39.20
2023-04-22T12:28:57.930Z,39.10
2023-04-22T12:31:25.336Z,38.60
2023-04-22T12:33:52.941Z,38.30
2023-04-22T12:36:20.964Z,38.40
2023-04-22T12:38:47.930Z,38.40
2023-04-22T12:41:15.840Z,38.40
2023-04-22T12:43:42.608Z,38.50
2023-04-22T12:46:10.426Z,38.40
2023-04-22T12:48:37.838Z,38.20
2023-04-22T12:51:06.380Z,37.60
2023-04-22T12:53:33.304Z,37.90
2023-04-22T12:56:00.110Z,37.80
2023-04-22T12:58:26.945Z,37.70
2023-04-22T13:00:53.715Z,37.70
2023-04-22T13:03:21.311Z,37.60
2023-04-22T13:05:48.228Z,37.50
2023-04-22T13:08:15.222Z,37.60
2023-04-22T13:10:41.978Z,37.40
2023-04-22T13:15:38.915Z,36.90
2023-04-22T13:18:06.124Z,36.80
2023-04-22T13:20:33.025Z,36.70
2023-04-22T13:22:59.739Z,36.90
2023-04-22T13:25:26.477Z,36.90
2023-04-22T13:27:53.232Z,37.00
2023-04-22T13:30:20.200Z,37.20
2023-04-22T13:32:47.107Z,37.10
2023-04-22T13:35:13.931Z,37.00
2023-04-22T13:37:40.713Z,37.00
2023-04-22T13:40:08.511Z,37.00
2023-04-22T13:42:35.656Z,38.00
2023-04-22T13:45:02.448Z,36.60
2023-04-22T13:47:29.402Z,36.60
2023-04-22T13:49:56.156Z,36.70
2023-04-22T13:52:22.879Z,36.70
2023-04-22T13:54:49.609Z,36.30
2023-04-22T13:57:16.381Z,36.60
2023-04-22T13:59:43.208Z,36.60
2023-04-22T14:02:10.123Z,36.30
2023-04-22T14:04:43.151Z,35.40
2023-04-22T14:07:10.638Z,36.20
2023-04-22T14:09:37.465Z,36.30
2023-04-22T14:12:06.611Z,36.40
2023-04-22T14:14:33.421Z,36.40
2023-04-22T14:17:00.378Z,35.50
2023-04-22T14:19:28.874Z,36.90
2023-04-22T14:21:56.185Z,36.30
2023-04-22T14:24:24.216Z,36.40
2023-04-22T14:26:52.487Z,35.90
2023-04-22T14:29:19.879Z,35.50
2023-04-22T14:31:46.809Z,35.10
2023-04-22T14:34:13.644Z,35.60
2023-04-22T14:36:40.504Z,35.70
2023-04-22T14:39:07.522Z,35.80
2023-04-22T14:41:34.640Z,35.80
2023-04-22T14:44:01.495Z,35.70
2023-04-22T14:46:29.769Z,35.60
2023-04-22T14:48:56.793Z,35.60
2023-04-22T14:51:23.828Z,35.80
2023-04-22T14:53:51.553Z,35.70
2023-04-22T14:56:19.363Z,35.80
2023-04-22T14:58:46.920Z,35.60
2023-04-22T15:01:13.784Z,35.60
2023-04-22T15:03:41.073Z,35.50
2023-04-22T15:06:08.186Z,35.50
2023-04-22T15:08:34.943Z,35.40
2023-04-22T15:11:01.728Z,34.30
2023-04-22T15:13:28.951Z,35.10
2023-04-22T15:15:55.798Z,35.30
2023-04-22T15:18:22.779Z,34.00
2023-04-22T15:20:49.598Z,35.30
2023-04-22T15:23:16.451Z,35.40
2023-04-22T15:25:43.236Z,35.40
2023-04-22T15:28:10.119Z,35.40
2023-04-22T15:30:36.876Z,34.90
2023-04-22T15:33:04.934Z,35.10
2023-04-22T15:35:31.925Z,35.10
2023-04-22T15:37:58.933Z,35.00
2023-04-22T15:40:25.775Z,35.00
2023-04-22T15:42:52.525Z,35.00
2023-04-22T15:45:19.881Z,35.00
2023-04-22T15:47:46.986Z,34.70
2023-04-22T15:50:13.830Z,34.80
2023-04-22T15:52:40.924Z,35.40
2023-04-22T15:55:08.276Z,34.70
2023-04-22T15:57:35.627Z,34.70
2023-04-22T16:00:12.394Z,34.80
2023-04-22T16:02:41.223Z,34.20
2023-04-22T16:05:08.870Z,34.50
2023-04-22T16:07:35.640Z,34.40
2023-04-22T16:10:02.777Z,34.40
2023-04-22T16:12:30.955Z,34.30
2023-04-22T16:14:58.991Z,34.40
2023-04-22T16:17:26.800Z,33.60
2023-04-22T16:19:54.905Z,34.00
2023-04-22T16:22:21.714Z,34.80
2023-04-22T16:24:48.486Z,34.90
2023-04-22T16:27:17.175Z,34.60
2023-04-22T16:29:44.204Z,34.60
2023-04-22T16:32:11.788Z,34.00
2023-04-22T16:34:38.907Z,34.50
2023-04-22T16:37:06.493Z,34.50
2023-04-22T16:39:33.945Z,34.50
2023-04-22T16:42:02.313Z,34.30
2023-04-22T16:44:29.194Z,34.20
2023-04-22T16:46:55.994Z,34.10
2023-04-22T16:49:22.778Z,34.40
2023-04-22T16:51:49.899Z,34.50
2023-04-22T16:54:16.668Z,34.60
2023-04-22T16:56:43.410Z,34.70
2023-04-22T16:59:10.165Z,34.70
2023-04-22T17:01:37.182Z,35.30
2023-04-22T17:04:04.066Z,34.80
2023-04-22T17:06:31.200Z,34.90
2023-04-22T17:08:59.815Z,35.00
2023-04-22T17:13:53.881Z,34.60
2023-04-22T17:16:20.979Z,34.70
2023-04-22T17:18:47.856Z,35.10
2023-04-22T17:21:16.599Z,35.10
2023-04-22T17:23:43.890Z,35.20
2023-04-22T17:26:10.673Z,35.20
2023-04-22T17:28:37.386Z,34.90
2023-04-22T17:31:04.291Z,34.60
2023-04-22T17:33:31.265Z,35.40
2023-04-22T17:35:58.047Z,35.20
2023-04-22T17:38:24.805Z,35.30
2023-04-22T17:40:51.534Z,35.40
2023-04-22T17:43:18.661Z,35.50
2023-04-22T17:45:45.553Z,35.60
2023-04-22T17:48:12.355Z,35.60
2023-04-22T17:50:39.122Z,35.60
2023-04-22T17:53:05.925Z,35.70
2023-04-22T17:55:35.175Z,35.80
2023-04-22T17:58:03.156Z,35.80
2023-04-22T18:00:30.993Z,36.00
2023-04-22T18:02:58.360Z,36.00
2023-04-22T18:05:27.004Z,36.10
2023-04-22T18:08:00.688Z,36.10
2023-04-22T18:10:27.631Z,36.20
2023-04-22T18:12:54.962Z,36.30
2023-04-22T18:15:23.514Z,36.40
2023-04-22T18:17:51.141Z,35.80
2023-04-22T18:20:19.442Z,36.50
2023-04-22T18:22:56.220Z,36.50
2023-04-22T18:25:24.414Z,36.60
2023-04-22T18:27:54.939Z,36.70
2023-04-22T18:30:23.876Z,36.80
2023-04-22T18:32:51.763Z,36.90
2023-04-22T18:35:19.929Z,36.60
2023-04-22T18:37:46.830Z,37.00
2023-04-22T18:40:14.009Z,37.20
2023-04-22T18:42:44.425Z,37.20
2023-04-22T18:45:11.614Z,37.20
2023-04-22T18:47:38.402Z,37.30
2023-04-22T18:50:06.077Z,37.40
2023-04-22T18:52:34.023Z,37.50
2023-04-22T18:55:00.783Z,37.50
2023-04-22T18:57:27.546Z,37.70
2023-04-22T18:59:55.004Z,37.70
2023-04-22T19:02:22.149Z,37.80
2023-04-22T19:04:49.360Z,37.80
2023-04-22T19:07:16.149Z,37.90
2023-04-22T19:09:42.889Z,38.00
2023-04-22T19:12:14.556Z,38.10
2023-04-22T19:14:42.079Z,38.20
2023-04-22T19:17:09.228Z,37.90
2023-04-22T19:19:36.003Z,38.90
2023-04-22T19:22:02.802Z,38.40
2023-04-22T19:24:33.333Z,38.50
2023-04-22T19:27:07.013Z,39.20
2023-04-22T19:29:34.023Z,38.70
2023-04-22T19:32:01.673Z,39.00
2023-04-22T19:34:29.248Z,38.70
2023-04-22T19:36:56.051Z,38.90
2023-04-22T19:39:23.604Z,38.90
2023-04-22T19:41:50.698Z,39.70
2023-04-22T19:44:17.730Z,39.10
2023-04-22T19:46:44.531Z,39.20
2023-04-22T19:49:11.595Z,39.30
2023-04-22T19:51:40.157Z,39.40
2023-04-22T19:54:08.676Z,39.50
2023-04-22T19:56:35.816Z,39.50
2023-04-22T19:59:03.315Z,39.50
2023-04-22T20:01:30.648Z,39.70
2023-04-22T20:03:58.031Z,39.70
2023-04-22T20:06:25.256Z,39.40
2023-04-22T20:08:53.615Z,39.90
2023-04-22T20:11:26.358Z,40.00
2023-04-22T20:13:53.741Z,40.10
2023-04-22T20:16:23.255Z,39.80
2023-04-22T20:18:50.848Z,40.10
2023-04-22T20:21:19.874Z,40.20
2023-04-22T20:23:49.720Z,40.30
2023-04-22T20:26:20.052Z,40.40
2023-04-22T20:28:51.967Z,40.40
2023-04-22T20:31:22.469Z,40.50
2023-04-22T20:33:50.937Z,40.50
2023-04-22T20:36:19.656Z,40.60
2023-04-22T20:38:49.371Z,40.70
2023-04-22T20:41:20.111Z,40.80
2023-04-22T20:43:47.164Z,40.70
2023-04-22T20:46:14.107Z,40.80
2023-04-22T20:48:41.207Z,40.80
2023-04-22T20:51:08.207Z,40.90
2023-04-22T20:53:35.426Z,41.00
2023-04-22T20:56:02.692Z,41.40
2023-04-22T20:58:29.412Z,41.10
2023-04-22T21:00:56.213Z,41.20
2023-04-22T21:03:24.862Z,40.70
2023-04-22T21:05:52.357Z,40.80
2023-04-22T21:08:24.003Z,41.40
2023-04-22T21:10:53.700Z,41.50
2023-04-22T21:13:21.367Z,41.50
2023-04-22T21:15:58.255Z,41.60
2023-04-22T21:18:27.798Z,41.20
2023-04-22T21:20:56.481Z,41.70
2023-04-22T21:23:25.135Z,41.70
2023-04-22T21:25:54.938Z,41.70
2023-04-22T21:28:22.260Z,41.80
2023-04-22T21:30:49.526Z,41.70
2023-04-22T21:33:16.308Z,41.80
2023-04-22T21:35:43.175Z,41.90
2023-04-22T21:38:10.299Z,41.90
2023-04-22T21:40:37.150Z,42.00
2023-04-22T21:43:04.713Z,42.00
2023-04-22T21:45:32.091Z,42.10
2023-04-22T21:48:02.165Z,42.70
2023-04-22T21:50:30.398Z,42.10
2023-04-22T21:52:57.924Z,42.80
2023-04-22T21:55:24.668Z,42.30
2023-04-22T21:57:51.609Z,42.20
2023-04-22T22:00:19.165Z,42.30
2023-04-22T22:02:48.088Z,42.30
2023-04-22T22:05:16.087Z,42.40
2023-04-22T22:07:45.032Z,42.40
2023-04-22T22:10:19.093Z,42.40
2023-04-22T22:12:47.406Z,42.40
2023-04-22T22:15:16.281Z,42.40
2023-04-22T22:17:44.340Z,42.20
2023-04-22T22:20:16.603Z,42.50
2023-04-22T22:22:44.610Z,42.50
2023-04-22T22:25:14.770Z,42.50
2023-04-22T22:27:46.656Z,42.50
2023-04-22T22:30:13.735Z,42.70
2023-04-22T22:32:40.706Z,42.70
2023-04-22T22:35:08.076Z,42.70
2023-04-22T22:37:35.316Z,42.80
2023-04-22T22:40:02.192Z,42.90
2023-04-22T22:42:28.968Z,42.90
2023-04-22T22:44:55.858Z,43.00
2023-04-22T22:47:24.740Z,43.00
2023-04-22T22:49:52.477Z,43.10
2023-04-22T22:52:19.496Z,43.10
2023-04-22T22:54:49.910Z,42.50
2023-04-22T22:57:16.698Z,43.20
2023-04-22T22:59:43.410Z,43.20
2023-04-22T23:02:10.692Z,43.20
2023-04-22T23:04:39.412Z,42.80
2023-04-22T23:07:06.525Z,43.30
2023-04-22T23:09:33.278Z,43.30
2023-04-22T23:12:00.004Z,43.40
2023-04-22T23:14:27.496Z,43.30
2023-04-22T23:16:54.646Z,43.00
2023-04-22T23:19:21.891Z,43.40
2023-04-22T23:21:49.190Z,43.70
2023-04-22T23:24:16.773Z,44.00
2023-04-22T23:26:44.026Z,43.50
2023-04-22T23:29:11.092Z,43.60
2023-04-22T23:31:41.602Z,43.60
2023-04-22T23:34:09.313Z,43.80
2023-04-22T23:36:37.365Z,43.50
2023-04-22T23:39:06.662Z,43.80
2023-04-22T23:41:33.922Z,43.90
2023-04-22T23:44:00.713Z,43.90
2023-04-22T23:46:27.949Z,44.10
2023-04-22T23:48:55.020Z,44.00
2023-04-22T23:51:21.861Z,44.10
2023-04-22T23:53:48.747Z,44.20
2023-04-22T23:56:20.586Z,44.20
2023-04-22T23:58:48.784Z,44.80
